Dunloy, United Kingdom
Current Conditions -  °F | °C
As of 2:20 PM on Monday 26 Jan 2015 (Local Time) from EGAA Reporting Station
Broken Clouds Broken Clouds  
Wind Chill: 37°   Ceiling: 3200
Heat Index: 43°   Visibility: 6mi
Dew Point: 37°   Wind: 12mph
Humidity: 81%   Direction: 290°WNW
Pressure: 30.27"   Gusts: NA
Location:  55.01°N, 6.41°W
Report Text: EGAA 261420Z 29010KT 9999 FEW021 SCT027 BKN032 06/03 Q1025
Loading
Personal Weather Stations






























Interactive Weather Map New forecast layout! Learn more

10-Day Weather Forecast

Advertisements
Track Severe Weather on mobile